METAR AND TAF INFORMATION
METAR FOR PAMD
ADDS - METARS form results

(0719 UTC 26 March 2019)
Data provider http://aviationweather.gov/metar/data/
 
METAR text: PAMD 260651Z AUTO 28011G19KT 10SM OVC006 03/02 A3013 RMK AO2 SLP193 T00280022
Conditions at: PAMD (MIDDLETON ISLAND, AK, US) observed 0651 UTC 26 March 2019
Temperature: 2.8°C (37°F)
Dewpoint: 2.2°C (36°F) [RH = 96%]
Pressure (altimeter): 30.13 inches Hg (1020.4 mb)
[Sea-level pressure: 1019.3 mb]
Winds: from the W (280 degrees) at 13 MPH (11 knots; 5.7 m/s)
gusting to 22 MPH (19 knots; 9.8 m/s)
Visibility: 10 or more miles (16+ km)
Ceiling: 600 feet AGL
Clouds: overcast cloud deck at 600 feet AGL
Weather: automated observation with no human augmentation;
there may or may not be significant weather present at this time

 AIRPORT MAP

 RUNWAY INFORMATION
Runway 02 Runway length 4178 ft Runway width 115 ft
Runway elevation 100 ft Runway displaced threshold 1020 ft Runway heading 34
Runway 20 Runway length 4178 ft Runway width 115 ft
Runway elevation 100 ft Runway displaced threshold 0 ft Runway heading 214
Runway 13 Runway length 1500 ft Runway width 125 ft
Runway elevation 99 ft Runway displaced threshold 0 ft Runway heading 149
Runway 31 Runway length 1500 ft Runway width 125 ft
Runway elevation 97 ft Runway displaced threshold 0 ft Runway heading 329

 AIRPORT FREQUENCIES

 AIRPORT NEAR NAVIGATION AIDS



Powered by Virtual Airlines Manager [v2.6.2]